Time;durP1;ratioP1;P1;durP2;ratioP2;P2;SDS_P1;SDS_P2;PMS_P1;PMS_P2;Temp;Humidity;BMP_temperature;BMP_pressure;BME280_temperature;BME280_humidity;BME280_pressure;Samples;Min_cycle;Max_cycle;Signal;HPM_P1;HPM_P2
2024/02/21 00:01:16;;;;;;;14.50;3.58;;;9.50;99.90;;;;;;4938266;29;20789;-83
2024/02/21 00:03:43;;;;;;;12.07;3.20;;;9.50;99.90;;;;;;4955793;29;20051;-83
2024/02/21 00:06:09;;;;;;;7.65;3.30;;;9.40;99.90;;;;;;4946493;29;20036;-83
2024/02/21 00:08:36;;;;;;;11.68;3.30;;;9.40;99.90;;;;;;4929514;29;20118;-83
2024/02/21 00:11:03;;;;;;;10.70;3.13;;;9.40;99.90;;;;;;4921599;29;20100;-83
2024/02/21 00:13:29;;;;;;;9.98;3.03;;;9.40;99.90;;;;;;4933195;29;20043;-83
2024/02/21 00:15:56;;;;;;;11.27;2.92;;;9.40;99.90;;;;;;4938314;29;20047;-83
2024/02/21 00:18:23;;;;;;;11.02;3.03;;;9.40;99.90;;;;;;4938065;29;20408;-83
2024/02/21 00:20:50;;;;;;;12.07;3.00;;;9.40;99.90;;;;;;4937914;29;20062;-83
2024/02/21 00:23:16;;;;;;;12.82;3.10;;;9.50;99.90;;;;;;4934730;29;20028;-83
2024/02/21 00:25:43;;;;;;;12.68;2.97;;;9.40;99.90;;;;;;4928205;29;20094;-83
2024/02/21 00:28:09;;;;;;;14.57;3.05;;;9.80;99.90;;;;;;4937618;29;20374;-83
2024/02/21 00:30:38;;;;;;;9.52;3.45;;;9.50;99.90;;;;;;4944000;29;20041;-82
2024/02/21 00:33:05;;;;;;;11.48;2.63;;;9.40;99.90;;;;;;4934887;29;20047;-83
2024/02/21 00:35:31;;;;;;;11.38;2.67;;;9.40;99.90;;;;;;4938175;29;20050;-83
2024/02/21 00:37:59;;;;;;;13.90;3.30;;;10.10;99.90;;;;;;4953183;29;20036;-83
2024/02/21 00:40:26;;;;;;;11.98;2.80;;;9.50;99.90;;;;;;4926700;29;20060;-83
2024/02/21 00:42:52;;;;;;;12.52;2.70;;;9.50;99.90;;;;;;4935856;29;20043;-83
2024/02/21 00:45:19;;;;;;;15.52;3.05;;;9.30;99.90;;;;;;4922711;29;20656;-83
2024/02/21 00:47:45;;;;;;;14.82;2.38;;;9.10;99.90;;;;;;4937114;29;20043;-83
2024/02/21 00:50:12;;;;;;;12.65;2.70;;;9.20;99.90;;;;;;4934587;29;20067;-83
2024/02/21 00:52:39;;;;;;;11.80;3.05;;;9.10;99.90;;;;;;4921281;29;20043;-84
2024/02/21 00:55:06;;;;;;;16.77;2.67;;;9.70;99.90;;;;;;4937073;29;20039;-83
2024/02/21 00:57:33;;;;;;;17.38;2.70;;;9.10;99.90;;;;;;4924654;29;20444;-83
2024/02/21 00:59:59;;;;;;;9.07;2.17;;;9.20;99.90;;;;;;4941143;29;20127;-83
2024/02/21 01:02:26;;;;;;;12.85;3.13;;;9.10;99.90;;;;;;4925008;29;20123;-83
2024/02/21 01:04:53;;;;;;;11.77;2.72;;;9.10;99.90;;;;;;4936339;29;20043;-83
2024/02/21 01:07:19;;;;;;;14.45;2.80;;;9.10;99.90;;;;;;4937092;29;20444;-83
2024/02/21 01:09:46;;;;;;;22.05;3.08;;;9.00;99.90;;;;;;4937436;29;20076;-83
2024/02/21 01:12:12;;;;;;;13.18;2.70;;;9.10;99.90;;;;;;4936648;29;20658;-83
2024/02/21 01:14:39;;;;;;;16.60;3.40;;;9.00;99.90;;;;;;4952710;29;20039;-83
2024/02/21 01:17:06;;;;;;;13.02;3.17;;;9.00;99.90;;;;;;4949826;29;20136;-83
2024/02/21 01:19:32;;;;;;;15.25;3.33;;;9.00;99.90;;;;;;4957602;29;20511;-83
2024/02/21 01:21:59;;;;;;;13.20;3.35;;;9.00;99.90;;;;;;4924547;29;20091;-83
2024/02/21 01:24:26;;;;;;;18.85;3.55;;;9.00;99.90;;;;;;4936920;29;20453;-83
2024/02/21 01:26:52;;;;;;;15.95;2.90;;;9.00;99.90;;;;;;4933332;29;20500;-83
2024/02/21 01:29:19;;;;;;;16.90;3.55;;;9.50;99.90;;;;;;4946132;29;20489;-83
2024/02/21 01:31:47;;;;;;;12.48;2.78;;;9.20;99.90;;;;;;4936775;29;20043;-83
2024/02/21 01:34:13;;;;;;;13.35;3.33;;;9.10;99.90;;;;;;4936538;29;20465;-84
2024/02/21 01:36:41;;;;;;;14.65;2.90;;;9.00;99.90;;;;;;4936572;29;20098;-83
2024/02/21 01:39:08;;;;;;;11.43;2.88;;;9.10;99.90;;;;;;4940110;29;20062;-83
2024/02/21 01:41:34;;;;;;;14.35;3.28;;;9.00;99.90;;;;;;4936659;29;20043;-83
2024/02/21 01:44:01;;;;;;;11.73;3.13;;;9.40;99.90;;;;;;4936747;29;20058;-83
2024/02/21 01:46:30;;;;;;;15.63;3.60;;;9.00;99.90;;;;;;4936386;29;20837;-83
2024/02/21 01:48:57;;;;;;;11.52;2.90;;;9.00;99.90;;;;;;4936480;29;20491;-83
2024/02/21 01:51:25;;;;;;;17.30;3.33;;;9.10;99.90;;;;;;4931757;29;20124;-83
2024/02/21 01:53:53;;;;;;;15.45;3.53;;;9.10;99.90;;;;;;4931100;29;20091;-83
2024/02/21 01:56:20;;;;;;;16.40;3.42;;;9.00;99.90;;;;;;4935174;29;20071;-83
2024/02/21 01:58:49;;;;;;;12.07;3.63;;;9.00;99.90;;;;;;4934596;29;20036;-83
2024/02/21 02:01:16;;;;;;;15.10;3.67;;;9.10;99.90;;;;;;4932579;29;20043;-83
2024/02/21 02:03:45;;;;;;;15.75;3.70;;;9.30;99.90;;;;;;4932840;29;20032;-83
2024/02/21 02:06:12;;;;;;;20.65;4.10;;;9.40;99.90;;;;;;4935524;29;20079;-83
2024/02/21 02:08:39;;;;;;;16.98;3.60;;;9.00;99.90;;;;;;4936352;29;20051;-83
2024/02/21 02:11:06;;;;;;;13.02;3.45;;;8.90;99.90;;;;;;4936008;29;20051;-83
2024/02/21 02:13:33;;;;;;;15.10;3.15;;;8.90;99.90;;;;;;4930606;29;20040;-83
2024/02/21 02:16:00;;;;;;;11.73;3.33;;;8.90;99.90;;;;;;4936682;29;20044;-83
2024/02/21 02:18:26;;;;;;;12.55;3.42;;;8.90;99.90;;;;;;4935234;29;20079;-83
2024/02/21 02:20:53;;;;;;;17.38;3.80;;;9.00;99.90;;;;;;4930526;29;20523;-83
2024/02/21 02:23:33;;;;;;;12.65;3.25;;;8.80;99.90;;;;;;4928296;29;20043;-83
2024/02/21 02:26:03;;;;;;;15.77;3.40;;;9.00;99.90;;;;;;4928702;29;20035;-83
2024/02/21 02:28:29;;;;;;;13.80;3.28;;;9.20;99.90;;;;;;4946112;29;20040;-83
2024/02/21 02:30:56;;;;;;;13.95;3.30;;;8.80;99.90;;;;;;4935934;29;20048;-83
2024/02/21 02:33:22;;;;;;;10.55;3.22;;;8.80;99.90;;;;;;4932099;29;20083;-83
2024/02/21 02:35:49;;;;;;;14.27;3.22;;;9.00;99.90;;;;;;4939163;29;20131;-83
2024/02/21 02:38:16;;;;;;;12.00;3.20;;;9.00;99.90;;;;;;4932554;29;20214;-83
2024/02/21 02:40:44;;;;;;;11.02;3.15;;;8.80;99.90;;;;;;4928121;29;20035;-83
2024/02/21 02:43:10;;;;;;;15.07;3.63;;;8.80;99.90;;;;;;4924954;29;20123;-83
2024/02/21 02:45:37;;;;;;;17.48;4.10;;;8.10;99.90;;;;;;4930754;29;20124;-83
2024/02/21 02:48:04;;;;;;;12.10;3.80;;;8.80;99.90;;;;;;4934301;29;20114;-83
2024/02/21 02:50:30;;;;;;;12.73;3.47;;;8.70;99.90;;;;;;4920997;29;20042;-83
2024/02/21 02:52:57;;;;;;;9.52;3.47;;;9.60;99.90;;;;;;4940735;29;20473;-83
2024/02/21 02:55:24;;;;;;;15.80;3.78;;;9.30;99.90;;;;;;4938920;29;20040;-83
2024/02/21 02:57:50;;;;;;;9.77;3.92;;;8.80;99.90;;;;;;4922384;29;20044;-83
2024/02/21 03:00:17;;;;;;;16.20;3.88;;;8.90;99.90;;;;;;4931902;29;20039;-83
2024/02/21 03:02:48;;;;;;;16.33;4.18;;;8.80;99.90;;;;;;4935690;29;20043;-83
2024/02/21 03:05:19;;;;;;;12.00;3.55;;;8.70;99.90;;;;;;4935461;29;20051;-83
2024/02/21 03:07:46;;;;;;;11.93;4.10;;;8.70;99.90;;;;;;4936031;29;20043;-84
2024/02/21 03:10:16;;;;;;;8.98;3.63;;;9.30;99.90;;;;;;4935996;29;20039;-83
2024/02/21 03:12:43;;;;;;;13.82;4.50;;;9.40;99.90;;;;;;4931351;29;20044;-83
2024/02/21 03:15:09;;;;;;;13.70;4.97;;;8.70;99.90;;;;;;4938697;29;20047;-83
2024/02/21 03:17:36;;;;;;;16.92;4.68;;;8.70;99.90;;;;;;4931106;29;20083;-83
2024/02/21 03:20:05;;;;;;;12.73;4.57;;;8.70;99.90;;;;;;4943724;29;20043;-83
2024/02/21 03:22:35;;;;;;;18.55;5.25;;;8.70;99.90;;;;;;4935157;29;20122;-83
2024/02/21 03:25:01;;;;;;;13.20;4.70;;;8.70;99.90;;;;;;4951313;29;20048;-83
2024/02/21 03:27:28;;;;;;;18.95;5.35;;;8.70;99.90;;;;;;4939852;29;20429;-83
2024/02/21 03:29:55;;;;;;;14.75;4.70;;;8.70;99.90;;;;;;4926929;29;20047;-84
2024/02/21 03:32:21;;;;;;;15.77;5.13;;;8.70;99.90;;;;;;4958665;29;20535;-83
2024/02/21 03:34:48;;;;;;;17.52;5.32;;;8.70;99.90;;;;;;4939401;29;20039;-83
2024/02/21 03:37:15;;;;;;;15.50;5.75;;;8.70;99.90;;;;;;4939376;29;20048;-83
2024/02/21 03:39:41;;;;;;;19.38;4.97;;;8.70;99.90;;;;;;4932698;29;20135;-83
2024/02/21 03:42:08;;;;;;;16.52;5.40;;;8.70;99.90;;;;;;4949206;29;20083;-83
2024/02/21 03:44:35;;;;;;;13.18;5.00;;;8.70;99.90;;;;;;4934489;29;20032;-83
2024/02/21 03:47:02;;;;;;;16.95;5.18;;;8.80;99.90;;;;;;4940958;29;20043;-83
2024/02/21 03:49:28;;;;;;;20.92;5.68;;;8.70;99.90;;;;;;4954638;29;20099;-84
2024/02/21 03:51:55;;;;;;;17.17;6.22;;;8.70;99.90;;;;;;4944143;29;20051;-83
2024/02/21 03:54:22;;;;;;;21.85;6.18;;;8.80;99.90;;;;;;4943456;29;20103;-83
2024/02/21 03:56:49;;;;;;;21.45;6.35;;;8.70;99.90;;;;;;4935656;29;20774;-83
2024/02/21 03:59:16;;;;;;;22.95;5.38;;;8.70;99.90;;;;;;4926684;29;20038;-83
2024/02/21 04:01:42;;;;;;;27.17;6.25;;;8.70;99.90;;;;;;4938602;29;20036;-83
2024/02/21 04:04:10;;;;;;;20.90;5.78;;;8.70;99.90;;;;;;4938548;29;20061;-83
2024/02/21 04:06:45;;;;;;;19.45;5.65;;;8.90;99.90;;;;;;4938908;29;20449;-83
2024/02/21 04:09:12;;;;;;;26.17;6.57;;;8.70;99.90;;;;;;4942520;29;20047;-83
2024/02/21 04:11:38;;;;;;;21.35;6.53;;;9.60;99.90;;;;;;4938533;29;20107;-83
2024/02/21 04:14:05;;;;;;;26.27;6.32;;;9.00;99.90;;;;;;4938658;29;20039;-83
2024/02/21 04:16:32;;;;;;;24.63;6.25;;;8.80;99.90;;;;;;4953222;29;20059;-83
2024/02/21 04:18:58;;;;;;;27.10;6.45;;;8.70;99.90;;;;;;4938349;29;20044;-83
2024/02/21 04:21:25;;;;;;;26.55;7.13;;;8.70;99.90;;;;;;4935785;29;20055;-83
2024/02/21 04:23:52;;;;;;;27.67;7.38;;;8.70;99.90;;;;;;4930334;29;20039;-83
2024/02/21 04:26:18;;;;;;;24.10;6.85;;;8.70;99.90;;;;;;4937910;29;20036;-83
2024/02/21 04:28:46;;;;;;;23.38;6.68;;;8.70;99.90;;;;;;4937775;29;20425;-83
2024/02/21 04:31:12;;;;;;;25.45;6.10;;;9.60;99.90;;;;;;4953393;29;20122;-83
2024/02/21 04:33:39;;;;;;;29.42;6.50;;;8.60;99.90;;;;;;4937708;29;20640;-84
2024/02/21 04:36:06;;;;;;;20.30;7.00;;;8.70;99.90;;;;;;4937784;29;20051;-83
2024/02/21 04:38:32;;;;;;;20.13;6.85;;;8.70;99.90;;;;;;4950305;29;20545;-84
2024/02/21 04:40:59;;;;;;;18.17;5.38;;;8.70;99.90;;;;;;4932580;29;20044;-83
2024/02/21 04:43:25;;;;;;;22.15;5.90;;;8.80;99.90;;;;;;4932221;29;20043;-83
2024/02/21 04:45:53;;;;;;;17.40;5.60;;;8.70;99.90;;;;;;4947049;29;20171;-83
2024/02/21 04:48:20;;;;;;;19.95;5.97;;;9.20;99.90;;;;;;4937872;29;20532;-83
2024/02/21 04:50:47;;;;;;;21.02;6.07;;;8.70;99.90;;;;;;4953355;29;20065;-83
2024/02/21 04:53:13;;;;;;;19.75;6.32;;;8.80;99.90;;;;;;4937652;29;20039;-83
2024/02/21 04:55:40;;;;;;;21.73;5.43;;;8.60;99.90;;;;;;4937315;29;20044;-83
2024/02/21 04:58:07;;;;;;;20.00;5.53;;;8.60;99.90;;;;;;4937691;29;20126;-83
2024/02/21 05:00:34;;;;;;;22.85;6.20;;;8.60;99.90;;;;;;4937528;29;20040;-83
2024/02/21 05:03:01;;;;;;;24.75;6.70;;;8.70;99.90;;;;;;4937599;29;20055;-83
2024/02/21 05:05:27;;;;;;;19.20;6.20;;;8.80;99.90;;;;;;4953033;29;20523;-83
2024/02/21 05:07:54;;;;;;;20.55;6.60;;;9.00;99.90;;;;;;4941221;29;20046;-83
2024/02/21 05:10:21;;;;;;;23.98;6.57;;;8.60;99.90;;;;;;4949395;29;20099;-83
2024/02/21 05:12:47;;;;;;;16.50;5.78;;;8.60;99.90;;;;;;4949683;29;20494;-83
2024/02/21 05:15:14;;;;;;;22.60;6.32;;;8.60;99.90;;;;;;4930904;29;20091;-83
2024/02/21 05:17:42;;;;;;;22.10;6.45;;;8.70;99.90;;;;;;4918430;29;20043;-83
2024/02/21 05:20:09;;;;;;;29.77;6.85;;;8.70;99.90;;;;;;4918305;29;20044;-83
2024/02/21 05:22:36;;;;;;;30.33;6.97;;;8.70;99.90;;;;;;4937609;29;20071;-83
2024/02/21 05:25:02;;;;;;;23.60;7.20;;;8.70;99.90;;;;;;4933861;29;20071;-83
2024/02/21 05:27:29;;;;;;;18.88;6.75;;;8.70;99.90;;;;;;4945492;29;20036;-83
2024/02/21 05:29:56;;;;;;;30.02;6.95;;;8.90;99.90;;;;;;4933272;29;20048;-83
2024/02/21 05:32:22;;;;;;;27.13;6.93;;;8.70;99.90;;;;;;4933276;29;20402;-83
2024/02/21 05:34:50;;;;;;;23.33;6.93;;;8.70;99.90;;;;;;4943052;29;20051;-83
2024/02/21 05:37:16;;;;;;;27.08;6.95;;;8.60;99.90;;;;;;4930163;29;20039;-83
2024/02/21 05:39:43;;;;;;;21.80;7.07;;;8.70;99.90;;;;;;4924642;29;20579;-83
2024/02/21 05:42:10;;;;;;;26.25;8.40;;;9.10;99.90;;;;;;4949253;29;20045;-83
2024/02/21 05:44:37;;;;;;;22.08;6.68;;;8.60;99.90;;;;;;4936920;29;20540;-83
2024/02/21 05:47:03;;;;;;;27.35;6.55;;;8.70;99.90;;;;;;4944249;29;20093;-83
2024/02/21 05:49:30;;;;;;;23.80;6.68;;;8.70;99.90;;;;;;4933204;29;20051;-83
2024/02/21 05:51:57;;;;;;;29.75;6.75;;;8.70;99.90;;;;;;4939615;29;20139;-83
2024/02/21 05:54:23;;;;;;;22.10;7.60;;;8.70;99.90;;;;;;4951928;29;20046;-83
2024/02/21 05:56:50;;;;;;;30.25;9.55;;;8.90;99.90;;;;;;4936603;29;20126;-83
2024/02/21 05:59:19;;;;;;;19.83;6.90;;;8.90;99.90;;;;;;4951947;29;20040;-83
2024/02/21 06:01:54;;;;;;;21.73;6.93;;;8.70;99.90;;;;;;4936578;29;20067;-83
2024/02/21 06:04:21;;;;;;;31.92;7.65;;;8.90;99.90;;;;;;4951978;29;20043;-83
2024/02/21 06:06:47;;;;;;;23.02;7.53;;;8.60;99.90;;;;;;4936764;29;20093;-83
2024/02/21 06:09:14;;;;;;;16.58;6.28;;;8.80;99.90;;;;;;4936222;29;20043;-83
2024/02/21 06:11:40;;;;;;;26.65;6.47;;;8.70;99.90;;;;;;4952139;29;20046;-83
2024/02/21 06:14:07;;;;;;;26.98;6.90;;;9.00;99.90;;;;;;4936283;29;20044;-83
2024/02/21 06:16:34;;;;;;;27.52;6.93;;;9.00;99.90;;;;;;4949300;29;20848;-83
2024/02/21 06:19:00;;;;;;;24.17;7.50;;;9.20;99.90;;;;;;4933241;29;20044;-84
2024/02/21 06:21:30;;;;;;;32.47;7.80;;;8.60;99.90;;;;;;4951270;29;20413;-83
2024/02/21 06:23:57;;;;;;;24.38;7.10;;;8.60;99.90;;;;;;4938543;29;20115;-83
2024/02/21 06:26:23;;;;;;;23.17;7.38;;;9.10;99.90;;;;;;4936008;29;20158;-83
2024/02/21 06:28:50;;;;;;;23.13;7.60;;;8.70;99.90;;;;;;4952105;29;20114;-83
2024/02/21 06:31:17;;;;;;;27.92;8.05;;;8.60;99.90;;;;;;4932433;29;20067;-83
2024/02/21 06:33:44;;;;;;;22.65;6.80;;;8.70;99.90;;;;;;4942317;29;20103;-83
2024/02/21 06:36:10;;;;;;;27.20;7.57;;;8.60;99.90;;;;;;4935834;29;20040;-83
2024/02/21 06:38:37;;;;;;;27.00;7.25;;;9.10;99.90;;;;;;4941310;29;20096;-83
2024/02/21 06:41:04;;;;;;;26.75;7.45;;;9.20;99.90;;;;;;4918407;29;20052;-83
2024/02/21 06:43:31;;;;;;;32.15;7.85;;;8.60;99.90;;;;;;4941404;29;20046;-83
2024/02/21 06:45:57;;;;;;;33.60;8.50;;;8.70;99.90;;;;;;4935736;29;20032;-83
2024/02/21 06:48:24;;;;;;;29.27;8.57;;;8.60;99.90;;;;;;4935644;29;20048;-83
2024/02/21 06:50:51;;;;;;;31.42;8.23;;;8.70;99.90;;;;;;4950884;29;20248;-83
2024/02/21 06:53:17;;;;;;;24.83;8.15;;;8.60;99.90;;;;;;4935489;29;20075;-83
2024/02/21 06:55:44;;;;;;;32.15;9.55;;;9.00;99.90;;;;;;4935391;29;20050;-83
2024/02/21 06:58:11;;;;;;;39.30;8.73;;;8.60;99.90;;;;;;4935157;29;20627;-83
2024/02/21 07:00:40;;;;;;;36.95;9.10;;;8.60;99.90;;;;;;4948865;29;20036;-83
2024/02/21 07:03:06;;;;;;;33.13;9.07;;;8.60;99.90;;;;;;4938340;29;20068;-83
2024/02/21 07:05:33;;;;;;;36.38;9.57;;;8.90;99.90;;;;;;4938851;29;20152;-83
2024/02/21 07:07:59;;;;;;;32.47;8.55;;;8.60;99.90;;;;;;4938625;29;20039;-83
2024/02/21 07:10:28;;;;;;;36.30;9.85;;;8.60;99.90;;;;;;4939163;29;20126;-84
2024/02/21 07:12:55;;;;;;;35.38;9.93;;;8.90;99.90;;;;;;4938181;29;20425;-83
2024/02/21 07:15:22;;;;;;;38.65;10.60;;;8.70;99.90;;;;;;4936833;29;20043;-83
2024/02/21 07:17:49;;;;;;;31.92;9.77;;;8.60;99.90;;;;;;4939492;29;20047;-83
2024/02/21 07:20:15;;;;;;;41.08;9.70;;;9.10;99.90;;;;;;4943481;29;20051;-84
2024/02/21 07:22:42;;;;;;;32.85;9.70;;;8.60;99.90;;;;;;4939082;29;20035;-84
2024/02/21 07:25:09;;;;;;;40.10;9.27;;;8.60;99.90;;;;;;4954790;29;20401;-84
2024/02/21 07:27:35;;;;;;;47.90;10.23;;;8.60;99.90;;;;;;4938685;29;20039;-85
2024/02/21 07:30:02;;;;;;;40.13;9.88;;;8.80;99.90;;;;;;4938194;29;20044;-84
2024/02/21 07:32:29;;;;;;;36.28;8.77;;;8.70;99.90;;;;;;4937999;29;20075;-85
2024/02/21 07:34:56;;;;;;;43.10;9.77;;;8.60;99.90;;;;;;4937951;29;20047;-84
2024/02/21 07:37:23;;;;;;;33.42;8.75;;;8.60;99.90;;;;;;4936289;29;20048;-84
2024/02/21 07:39:50;;;;;;;42.95;9.10;;;8.70;99.90;;;;;;4938299;29;20099;-84
2024/02/21 07:42:16;;;;;;;35.15;9.75;;;8.60;99.90;;;;;;4938476;29;20437;-84
2024/02/21 07:44:43;;;;;;;38.03;9.13;;;8.70;99.90;;;;;;4938443;29;20036;-84
2024/02/21 07:47:10;;;;;;;39.17;8.63;;;8.70;99.90;;;;;;4938447;29;20040;-83
2024/02/21 07:49:46;;;;;;;37.30;8.70;;;8.70;99.90;;;;;;4935459;29;20047;-84
2024/02/21 07:52:12;;;;;;;34.90;8.65;;;8.90;99.90;;;;;;4948959;29;20043;-84
2024/02/21 07:54:39;;;;;;;37.47;8.95;;;8.70;99.90;;;;;;4938835;29;20075;-84
2024/02/21 07:57:05;;;;;;;35.55;9.20;;;8.70;99.90;;;;;;4938665;29;20050;-83
2024/02/21 07:59:32;;;;;;;24.63;7.50;;;9.50;99.90;;;;;;4938848;29;20039;-84
2024/02/21 08:01:59;;;;;;;37.13;9.13;;;8.70;99.90;;;;;;4938357;29;20054;-84
2024/02/21 08:04:26;;;;;;;25.75;10.20;;;8.70;99.90;;;;;;4953691;29;20462;-84
2024/02/21 08:06:55;;;;;;;31.65;9.98;;;8.70;99.90;;;;;;4935161;29;20130;-84
2024/02/21 08:09:23;;;;;;;36.67;11.60;;;8.80;99.90;;;;;;4953794;29;20808;-84
2024/02/21 08:11:49;;;;;;;24.23;9.23;;;8.80;99.90;;;;;;4952566;29;20052;-84
2024/02/21 08:14:17;;;;;;;28.08;11.32;;;8.80;99.90;;;;;;4937491;29;20040;-84
2024/02/21 08:16:43;;;;;;;33.38;13.38;;;8.80;99.90;;;;;;4937653;29;20035;-84
2024/02/21 08:19:10;;;;;;;31.10;14.65;;;8.80;99.90;;;;;;4940867;29;20456;-84
2024/02/21 08:21:37;;;;;;;26.75;10.80;;;8.90;99.90;;;;;;4953344;29;20063;-83
2024/02/21 08:24:04;;;;;;;25.23;9.88;;;8.90;99.90;;;;;;4937098;29;20042;-84
2024/02/21 08:26:31;;;;;;;25.77;8.20;;;8.90;99.90;;;;;;4937466;29;20062;-84
2024/02/21 08:28:59;;;;;;;30.83;8.27;;;9.10;99.90;;;;;;4937159;29;20031;-84
2024/02/21 08:31:33;;;;;;;29.00;9.02;;;8.90;99.90;;;;;;4937565;29;20051;-84
2024/02/21 08:34:03;;;;;;;26.27;7.82;;;8.90;99.90;;;;;;4936973;29;20523;-84
2024/02/21 08:36:34;;;;;;;20.08;7.50;;;8.80;99.90;;;;;;4950805;29;20043;-84
2024/02/21 08:39:05;;;;;;;22.05;7.57;;;8.80;99.90;;;;;;4937741;29;20517;-84
2024/02/21 08:41:32;;;;;;;19.77;7.35;;;9.40;99.90;;;;;;4930287;29;20059;-84
2024/02/21 08:43:59;;;;;;;27.77;9.30;;;8.90;99.90;;;;;;4925314;29;20032;-84
2024/02/21 08:46:26;;;;;;;31.90;9.00;;;8.80;99.90;;;;;;4930445;29;20043;-84
2024/02/21 08:48:54;;;;;;;27.75;10.10;;;9.20;99.90;;;;;;4937447;29;20501;-85
2024/02/21 08:51:20;;;;;;;27.80;10.48;;;8.80;99.90;;;;;;4937478;29;20087;-85
2024/02/21 08:53:48;;;;;;;29.58;11.30;;;8.80;99.90;;;;;;4937904;29;20043;-85
2024/02/21 08:56:15;;;;;;;34.40;11.80;;;8.80;99.90;;;;;;4938311;29;20084;-85
2024/02/21 08:58:42;;;;;;;29.35;11.52;;;9.10;99.90;;;;;;4937705;29;20110;-84
2024/02/21 09:01:11;;;;;;;27.30;11.38;;;8.80;99.90;;;;;;4937430;29;20051;-85
2024/02/21 09:03:39;;;;;;;28.65;10.82;;;8.70;99.90;;;;;;4937389;29;20099;-85
2024/02/21 09:06:06;;;;;;;26.92;11.07;;;8.80;99.90;;;;;;4953158;29;20043;-85
2024/02/21 09:08:34;;;;;;;28.63;11.10;;;8.80;99.90;;;;;;4937520;29;20040;-85
2024/02/21 09:11:01;;;;;;;29.50;11.20;;;9.10;99.90;;;;;;4937808;29;20505;-85
2024/02/21 09:13:28;;;;;;;31.35;11.15;;;9.30;99.90;;;;;;4938368;29;20075;-85
2024/02/21 09:15:55;;;;;;;23.73;11.05;;;9.60;99.90;;;;;;4949967;29;20048;-85
2024/02/21 09:18:21;;;;;;;31.00;10.80;;;9.20;99.90;;;;;;4934862;29;20126;-84
2024/02/21 09:20:48;;;;;;;26.98;11.48;;;8.80;99.90;;;;;;4946434;29;20048;-85
2024/02/21 09:23:15;;;;;;;30.00;11.07;;;8.90;99.90;;;;;;4931122;29;20044;-85
2024/02/21 09:25:42;;;;;;;28.58;11.68;;;8.90;99.90;;;;;;4936508;29;20039;-85
2024/02/21 09:28:09;;;;;;;22.05;11.32;;;9.10;99.90;;;;;;4952532;29;20046;-85
2024/02/21 09:30:37;;;;;;;31.92;11.63;;;9.00;99.90;;;;;;4936772;29;20523;-85
2024/02/21 09:33:04;;;;;;;26.42;12.02;;;8.90;99.90;;;;;;4940181;29;20055;-85
2024/02/21 09:35:33;;;;;;;29.60;12.75;;;9.80;99.90;;;;;;4938754;29;20047;-85
2024/02/21 09:38:00;;;;;;;26.65;12.60;;;9.60;99.90;;;;;;4933775;29;20051;-86
2024/02/21 09:40:27;;;;;;;29.10;13.13;;;8.90;99.90;;;;;;4936287;29;20051;-85
2024/02/21 09:43:17;;;;;;;24.98;13.20;;;9.00;99.90;;;;;;4935417;29;20047;-85
2024/02/21 09:45:47;;;;;;;31.25;13.27;;;9.60;99.90;;;;;;4928897;29;20067;-85
2024/02/21 09:48:31;;;;;;;25.40;13.13;;;8.80;99.90;;;;;;4930529;29;20028;-85
2024/02/21 09:50:59;;;;;;;29.15;14.07;;;8.80;99.90;;;;;;4928102;29;20036;-85
2024/02/21 09:53:27;;;;;;;31.50;15.13;;;9.60;99.90;;;;;;4927651;29;21526;-85
2024/02/21 09:55:54;;;;;;;31.98;14.35;;;9.00;99.90;;;;;;4936823;29;20039;-85
2024/02/21 09:58:23;;;;;;;29.95;14.32;;;8.80;99.90;;;;;;4952327;29;20118;-85
2024/02/21 10:00:50;;;;;;;29.48;14.80;;;8.90;99.90;;;;;;4936797;29;20130;-85
2024/02/21 10:03:17;;;;;;;27.83;14.25;;;9.00;99.90;;;;;;4936122;29;20114;-85
2024/02/21 10:05:49;;;;;;;28.65;14.23;;;8.90;99.90;;;;;;4950595;29;20127;-84
2024/02/21 10:08:17;;;;;;;31.42;14.80;;;8.80;99.90;;;;;;4936525;29;20040;-85
2024/02/21 10:10:44;;;;;;;27.98;14.32;;;8.90;99.90;;;;;;4936727;29;20028;-86
2024/02/21 10:13:31;;;;;;;29.80;14.38;;;8.80;99.90;;;;;;4931277;29;20111;-86
2024/02/21 10:16:06;;;;;;;31.40;15.13;;;8.90;99.90;;;;;;4933256;29;20134;-86
2024/02/21 10:18:33;;;;;;;36.95;17.67;;;8.90;99.90;;;;;;4952728;29;20031;-86
2024/02/21 10:21:08;;;;;;;26.27;14.55;;;9.00;99.90;;;;;;4936250;29;20497;-85
2024/02/21 10:23:45;;;;;;;25.85;14.65;;;9.10;99.90;;;;;;4918068;29;20126;-86
2024/02/21 10:26:12;;;;;;;23.80;13.93;;;9.00;99.90;;;;;;4936522;29;20039;-86
2024/02/21 10:28:42;;;;;;;28.02;14.27;;;9.40;99.90;;;;;;4952230;29;20069;-85
2024/02/21 10:31:10;;;;;;;30.98;15.82;;;9.20;99.90;;;;;;4929163;29;20044;-86
2024/02/21 10:33:37;;;;;;;28.58;14.88;;;9.10;99.90;;;;;;4950963;29;20112;-86
2024/02/21 10:36:10;;;;;;;31.85;14.43;;;9.20;99.90;;;;;;4953215;29;20050;-86
2024/02/21 10:38:38;;;;;;;27.63;14.18;;;9.20;99.90;;;;;;4930413;29;20040;-85
2024/02/21 10:41:06;;;;;;;25.88;13.23;;;9.20;99.90;;;;;;4933262;29;20042;-86
2024/02/21 10:43:42;;;;;;;26.90;12.95;;;9.30;99.90;;;;;;4928739;29;20094;-86
2024/02/21 10:46:10;;;;;;;28.17;13.65;;;9.30;99.90;;;;;;4940350;29;20059;-86
2024/02/21 10:48:43;;;;;;;29.08;13.68;;;9.40;99.90;;;;;;4935902;29;20039;-86
2024/02/21 10:51:17;;;;;;;28.77;13.68;;;9.50;99.90;;;;;;4966119;29;20614;-86
2024/02/21 10:53:52;;;;;;;27.13;13.68;;;9.50;99.90;;;;;;4955895;29;20074;-85
2024/02/21 10:56:35;;;;;;;24.80;13.23;;;9.60;99.90;;;;;;4955746;29;20075;-85
2024/02/21 10:59:03;;;;;;;28.40;14.85;;;9.60;99.90;;;;;;4948803;29;20058;-86
2024/02/21 11:01:35;;;;;;;23.75;13.02;;;9.70;99.90;;;;;;4939741;29;20560;-85
2024/02/21 11:04:04;;;;;;;29.05;14.27;;;9.80;99.90;;;;;;4940119;29;20540;-85
2024/02/21 11:06:31;;;;;;;31.15;13.55;;;9.80;99.90;;;;;;4940090;29;20090;-85
2024/02/21 11:09:01;;;;;;;28.60;13.60;;;9.80;99.90;;;;;;4942333;29;20450;-85
2024/02/21 11:11:28;;;;;;;28.20;12.80;;;9.80;99.90;;;;;;4939468;29;20126;-86
2024/02/21 11:14:05;;;;;;;26.42;13.32;;;9.80;99.90;;;;;;4939554;29;20151;-86
2024/02/21 11:16:37;;;;;;;25.75;12.07;;;9.80;99.90;;;;;;4934012;29;20043;-86
2024/02/21 11:19:09;;;;;;;24.73;12.05;;;9.70;99.90;;;;;;4954456;29;20569;-85
2024/02/21 11:21:37;;;;;;;20.23;10.88;;;9.80;99.90;;;;;;4939625;29;20105;-85
2024/02/21 11:24:04;;;;;;;24.88;10.90;;;9.80;99.90;;;;;;4938082;29;20098;-86
2024/02/21 11:26:32;;;;;;;24.83;12.15;;;9.80;99.90;;;;;;4951069;29;20040;-86
2024/02/21 11:29:00;;;;;;;26.45;12.05;;;10.00;99.90;;;;;;4939131;29;20036;-85
2024/02/21 11:31:37;;;;;;;22.20;11.02;;;9.90;99.90;;;;;;4926647;29;20051;-85
2024/02/21 11:34:04;;;;;;;18.77;10.30;;;10.00;99.90;;;;;;4926610;29;20060;-85
2024/02/21 11:36:31;;;;;;;21.13;10.07;;;10.00;99.90;;;;;;4939184;29;20044;-85
2024/02/21 11:39:04;;;;;;;22.08;10.50;;;10.00;99.90;;;;;;4942717;29;20501;-85
2024/02/21 11:41:31;;;;;;;19.77;9.60;;;10.20;99.90;;;;;;4938445;29;20050;-85
2024/02/21 11:43:58;;;;;;;20.05;10.52;;;10.30;99.90;;;;;;4938746;29;20555;-85
2024/02/21 11:46:25;;;;;;;19.30;10.52;;;10.00;99.90;;;;;;4942933;29;20035;-86
2024/02/21 11:48:51;;;;;;;22.55;9.60;;;10.00;99.90;;;;;;4961616;29;20493;-85
2024/02/21 11:51:24;;;;;;;17.02;9.30;;;10.30;99.90;;;;;;4939680;29;20050;-86
2024/02/21 11:53:52;;;;;;;17.40;9.55;;;9.90;99.90;;;;;;4938858;29;20138;-85
2024/02/21 11:56:20;;;;;;;16.90;8.35;;;10.00;99.90;;;;;;4938805;29;20043;-86
2024/02/21 11:58:47;;;;;;;15.15;7.72;;;9.90;99.90;;;;;;4939052;29;20039;-86
2024/02/21 12:01:14;;;;;;;19.67;8.45;;;9.90;99.90;;;;;;4939280;29;20048;-86
2024/02/21 12:03:45;;;;;;;18.70;9.38;;;9.90;99.90;;;;;;4939026;29;20035;-86
2024/02/21 12:06:14;;;;;;;22.10;9.95;;;9.90;99.90;;;;;;4958443;29;20075;-86
2024/02/21 12:08:44;;;;;;;22.48;9.15;;;10.80;99.90;;;;;;4929982;29;20044;-90
2024/02/21 12:11:37;;;;;;;15.00;7.50;;;10.00;99.90;;;;;;4933571;29;20036;-87
2024/02/21 12:14:04;;;;;;;14.95;8.50;;;9.90;99.90;;;;;;4935187;29;20094;-85
2024/02/21 12:16:32;;;;;;;17.27;8.35;;;9.90;99.90;;;;;;4935129;29;20375;-86
2024/02/21 12:19:00;;;;;;;18.55;8.50;;;10.00;99.90;;;;;;4950109;29;20075;-87
2024/02/21 12:21:32;;;;;;;15.35;7.75;;;9.90;99.90;;;;;;4921809;29;20048;-86
2024/02/21 12:23:59;;;;;;;17.50;8.38;;;10.00;99.90;;;;;;4937193;29;20123;-86
2024/02/21 12:26:26;;;;;;;16.25;7.38;;;10.20;99.90;;;;;;4933931;29;20127;-86
2024/02/21 12:28:55;;;;;;;15.38;8.13;;;9.90;99.90;;;;;;4935842;29;20126;-86
2024/02/21 12:31:21;;;;;;;17.60;8.35;;;10.10;99.90;;;;;;4938362;29;20480;-86
2024/02/21 12:33:48;;;;;;;16.58;7.28;;;9.90;99.90;;;;;;4938477;29;20095;-85
2024/02/21 12:36:15;;;;;;;16.02;7.45;;;9.90;99.90;;;;;;4938224;29;20048;-86
2024/02/21 12:38:42;;;;;;;14.43;6.97;;;10.00;99.90;;;;;;4927591;29;20134;-86
2024/02/21 12:41:09;;;;;;;14.27;6.97;;;9.90;99.90;;;;;;4949724;29;20043;-87
2024/02/21 12:43:35;;;;;;;17.13;7.80;;;10.20;99.90;;;;;;4939313;29;20569;-86
2024/02/21 12:46:02;;;;;;;15.57;7.57;;;9.90;99.90;;;;;;4954648;29;20035;-86